Flight Track Log - Related Links

Times and Time Zones

All times are in EST time to prevent confusion due to time zone crossing. See the PDT4226 flight status page for this flight to view local times or setup timezone preferences in your user account.


Time Position Orientation Groundspeed Altitude Reporting Facility
EST Latitude Longitude Course Direction KTS MPH feet Rate Location/Type
Tue 01:43:00 PM 42.0626 -75.9319 173° South  Level Estimated
Tue 01:44:00 PM 42.0140 -75.9160 180° South  Level Estimated
Tue 01:45:00 PM 41.9654 -75.9002 180° South  Level Estimated
Tue 01:46:00 PM 41.9157 -75.9079 187° South  Level FlightAware Approximate
Tue 01:47:00 PM 41.8660 -75.9155 187° South  Level FlightAware Approximate
Tue 01:48:00 PM 41.8163 -75.9232 187° South  Level FlightAware Approximate
Tue 01:49:00 PM 41.7666 -75.9308 187° South  Level FlightAware Approximate
Tue 01:50:00 PM 41.7184 -75.9127 154° Southeast  Level Estimated
Tue 01:51:00 PM 41.6702 -75.8947 160° South  Level Estimated
Tue 01:52:00 PM 41.6220 -75.8767 159° South  Level Estimated
Tue 01:53:00 PM 41.5768 -75.8482 155° Southeast  Level FlightAware Approximate
Tue 01:54:00 PM 41.5315 -75.8198 155° Southeast  Level FlightAware Approximate
Tue 01:55:00 PM 41.4832 -75.8025 153° Southeast  Level Estimated
Tue 01:56:00 PM 41.4349 -75.7852 161° South  Level Estimated
Tue 01:57:00 PM 41.3893 -75.7576 156° South  Level FlightAware Approximate
Tue 01:58:00 PM 41.3438 -75.7300 156° South  Level FlightAware Approximate
Tue 01:59:00 PM 41.2983 -75.7024 156° South  Level FlightAware Approximate
Tue 02:00:00 PM 41.2497 -75.6864 162° South  Level Estimated
Tue 02:01:00 PM 41.2027 -75.6637 160° South  Level FlightAware Approximate
Tue 02:02:00 PM 41.1556 -75.6412 160° South  Level FlightAware Approximate
Tue 02:03:00 PM 41.1086 -75.6186 160° South  Level FlightAware Approximate
Tue 02:04:00 PM 41.0615 -75.5961 160° South  Level FlightAware Approximate
Tue 02:05:00 PM 41.0145 -75.5736 160° South  Level FlightAware Approximate
Tue 02:06:00 PM 40.9656 -75.5591 163° South  Level Estimated
Tue 02:07:00 PM 40.9182 -75.5383 162° South  Level FlightAware Approximate
Tue 02:08:00 PM 40.8707 -75.5174 162° South  Level FlightAware Approximate
Tue 02:09:00 PM 40.8232 -75.4966 162° South  Level FlightAware Approximate
Tue 02:10:00 PM 40.7757 -75.4758 162° South  Level FlightAware Approximate
Tue 02:10:20 PM 40.6167 -75.6500 187° South 224 258 5,500  Level Philadelphia TRACON
Tue 02:11:00 PM 40.7267 -75.4629 190° South  Level Estimated
Tue 02:11:20 PM 40.5500 -75.6167 159° South 221 254 5,100  Level Philadelphia TRACON
Tue 02:12:00 PM 40.6770 -75.4710 187° South  Level FlightAware Approximate
Tue 02:12:20 PM 40.5000 -75.5833 153° Southeast 218 251 5,000  Level Philadelphia TRACON
Tue 02:13:00 PM 40.6274 -75.4792 187° South  Level FlightAware Approximate
Tue 02:13:20 PM 40.4500 -75.5500 153° Southeast 214 246 5,000  Level Philadelphia TRACON
Tue 02:14:00 PM 40.5778 -75.4873 187° South  Level FlightAware Approximate
Tue 02:14:26 PM 40.4000 -75.5000 143° Southeast 213 245 5,000  Level Philadelphia TRACON
Tue 02:15:00 PM 40.5281 -75.4954 187° South  Level FlightAware Approximate
Tue 02:15:21 PM 40.3500 -75.4500 143° Southeast 213 245 5,100  Level Philadelphia TRACON
Tue 02:16:26 PM 40.3000 -75.4000 143° Southeast 214 246 5,000 -50 Descending Philadelphia TRACON
Tue 02:17:20 PM 40.2667 -75.3667 143° Southeast 215 247 5,000 -158 Level Philadelphia TRACON
Tue 02:18:20 PM 40.2167 -75.3167 143° Southeast 215 247 4,700 -496 Descending Philadelphia TRACON
Tue 02:19:21 PM 40.1667 -75.2667 143° Southeast 222 255 4,000 -347 Descending Philadelphia TRACON
Tue 02:20:21 PM 40.1167 -75.2333 153° Southeast 193 222 4,000  Level Philadelphia TRACON
Tue 02:21:21 PM 40.0667 -75.2000 153° Southeast 199 229 4,000  Level Philadelphia TRACON
Tue 02:22:27 PM 40.0000 -75.1833 169° South 204 235 4,000  Level Philadelphia TRACON
Tue 02:23:26 PM 39.9500 -75.1500 153° Southeast 200 230 4,000  Level Philadelphia TRACON
Tue 02:24:27 PM 39.9000 -75.1333 166° South 201 231 4,000 -397 Level Philadelphia TRACON
Tue 02:25:27 PM 39.8500 -75.1000 153° Southeast 183 211 3,200 -1,000 Descending Philadelphia TRACON
Tue 02:26:27 PM 39.8000 -75.1000 180° South 183 211 2,000 -762 Descending Philadelphia TRACON
Tue 02:27:33 PM 39.7667 -75.1500 229° Southwest 171 197 1,600 -211 Descending Philadelphia TRACON
Tue 02:28:21 PM 39.8000 -75.1833 322° Northwest 174 200 1,600 -316 Level Philadelphia TRACON
Tue 02:29:27 PM 39.8333 -75.2167 322° Northwest 111 128 1,000 -600 Descending Philadelphia TRACON
Tue 02:30:21 PM 39.8667 -75.2167 360° North 119 137 400 -667 Descending Philadelphia TRACON

Login

Don't have an account? Register now (free) for customized features, flight alerts, and more!